Time;durP1;ratioP1;P1;durP2;ratioP2;P2;SDS_P1;SDS_P2;PMS_P1;PMS_P2;Temp;Humidity;BMP_temperature;BMP_pressure;BME280_temperature;BME280_humidity;BME280_pressure;Samples;Min_cycle;Max_cycle;Signal;HPM_P1;HPM_P2
2023/06/12 00:00:05;;;;;;;10.77;5.47;;;;;;;24.26;38.82;101391.75;5047294;28;20060;-64
2023/06/12 00:02:35;;;;;;;9.85;5.10;;;;;;;24.21;38.79;101390.00;5034992;28;20129;-63
2023/06/12 00:05:04;;;;;;;8.15;4.78;;;;;;;24.21;38.78;101395.56;5047477;28;20051;-63
2023/06/12 00:07:31;;;;;;;7.95;4.75;;;;;;;24.16;39.20;101393.00;5027810;28;20057;-65
2023/06/12 00:09:59;;;;;;;9.68;5.00;;;;;;;24.12;39.17;101396.81;5077561;28;20042;-62
2023/06/12 00:12:27;;;;;;;10.05;5.28;;;;;;;24.03;39.54;101399.75;5038037;28;20069;-64
2023/06/12 00:14:54;;;;;;;9.05;5.20;;;;;;;23.99;39.68;101387.66;5039878;28;20045;-63
2023/06/12 00:17:22;;;;;;;10.07;5.20;;;;;;;23.95;40.02;101397.84;5024653;28;20147;-63
2023/06/12 00:19:50;;;;;;;9.05;5.25;;;;;;;23.92;40.07;101393.78;4997933;28;20500;-62
2023/06/12 00:22:18;;;;;;;9.90;5.15;;;;;;;23.91;40.12;101394.13;5021268;28;20100;-65
2023/06/12 00:24:45;;;;;;;9.68;5.05;;;;;;;23.88;40.39;101398.41;5034494;28;20048;-63
2023/06/12 00:27:13;;;;;;;8.63;4.75;;;;;;;23.88;40.33;101389.25;5032775;28;20073;-63
2023/06/12 00:29:41;;;;;;;9.35;5.40;;;;;;;23.91;40.34;101391.34;5032644;28;20100;-64
2023/06/12 00:32:08;;;;;;;8.15;5.00;;;;;;;23.91;40.41;101391.34;5032368;28;20119;-63
2023/06/12 00:34:36;;;;;;;8.68;5.28;;;;;;;23.94;40.49;101391.47;5049793;28;20053;-65
2023/06/12 00:37:05;;;;;;;8.63;5.18;;;;;;;23.89;40.58;101400.06;5034382;28;20128;-65
2023/06/12 00:39:32;;;;;;;10.45;5.25;;;;;;;23.81;40.68;101393.44;5033675;28;20111;-64
2023/06/12 00:42:00;;;;;;;9.27;5.43;;;;;;;23.78;41.09;101401.63;5033204;28;20490;-64
2023/06/12 00:44:28;;;;;;;12.40;5.53;;;;;;;23.78;40.77;101394.09;5034303;28;20540;-63
2023/06/12 00:46:55;;;;;;;13.95;6.07;;;;;;;23.73;41.05;101397.09;5033150;28;20482;-65
2023/06/12 00:49:23;;;;;;;8.45;5.18;;;;;;;23.72;41.05;101389.91;5033092;28;20049;-62
2023/06/12 00:51:52;;;;;;;12.30;5.35;;;;;;;23.71;41.22;101393.81;5012552;28;20124;-63
2023/06/12 00:54:20;;;;;;;12.32;4.88;;;;;;;23.70;41.22;101392.19;4997360;28;20125;-63
2023/06/12 00:56:48;;;;;;;8.23;5.18;;;;;;;23.69;41.20;101393.38;5014496;28;20049;-64
2023/06/12 00:59:16;;;;;;;10.82;5.68;;;;;;;23.64;41.42;101388.00;5013990;28;20116;-63
2023/06/12 01:01:44;;;;;;;9.82;5.70;;;;;;;23.57;41.59;101384.97;5036957;28;20041;-64
2023/06/12 01:04:12;;;;;;;10.80;5.30;;;;;;;23.46;41.79;101394.91;5032172;28;20513;-64
2023/06/12 01:06:51;;;;;;;7.72;5.32;;;;;;;23.41;41.81;101389.56;5032292;28;20440;-64
2023/06/12 01:09:40;;;;;;;8.75;5.18;;;;;;;23.38;42.04;101386.31;5033311;28;20497;-65
2023/06/12 01:12:10;;;;;;;9.73;4.95;;;;;;;23.38;41.95;101391.88;5025543;28;20042;-64
2023/06/12 01:14:37;;;;;;;10.63;5.30;;;;;;;23.41;42.00;101389.56;5014182;28;20093;-65
2023/06/12 01:17:06;;;;;;;9.57;5.18;;;;;;;23.37;41.99;101387.44;5031055;28;20453;-65
2023/06/12 01:19:35;;;;;;;9.15;5.63;;;;;;;23.37;42.01;101389.41;5016487;28;20103;-64
2023/06/12 01:22:10;;;;;;;10.35;5.97;;;;;;;23.36;42.07;101382.25;5032771;28;20057;-64
2023/06/12 01:24:42;;;;;;;8.25;5.60;;;;;;;23.34;42.28;101385.34;5032593;28;20056;-64
2023/06/12 01:27:48;;;;;;;8.60;5.38;;;;;;;23.34;42.15;101390.91;5033026;28;20124;-64
2023/06/12 01:30:31;;;;;;;10.40;5.22;;;;;;;23.32;42.15;101393.22;5029024;28;20045;-63
2023/06/12 01:33:03;;;;;;;10.25;5.88;;;;;;;23.21;42.58;101397.59;5026706;28;20494;-65
2023/06/12 01:35:34;;;;;;;7.97;5.38;;;;;;;23.13;42.71;101395.69;5012854;28;20046;-63
2023/06/12 01:38:08;;;;;;;11.15;5.40;;;;;;;23.07;42.89;101397.06;4997265;28;20054;-65
2023/06/12 01:40:38;;;;;;;10.13;5.38;;;;;;;23.09;42.79;101403.06;5028481;28;20042;-63
2023/06/12 01:43:07;;;;;;;9.93;5.57;;;;;;;23.08;42.84;101393.91;5013362;28;20486;-66
2023/06/12 01:45:38;;;;;;;9.85;5.47;;;;;;;23.04;43.06;101397.72;5030011;28;20141;-64
2023/06/12 01:48:06;;;;;;;10.30;5.80;;;;;;;23.01;43.16;101398.41;5029213;28;20478;-65
2023/06/12 01:50:35;;;;;;;8.70;5.03;;;;;;;22.98;43.34;101388.78;5028978;28;20409;-63
2023/06/12 01:53:03;;;;;;;9.48;5.45;;;;;;;22.90;43.46;101396.00;5028825;28;20054;-63
2023/06/12 01:55:32;;;;;;;9.20;5.70;;;;;;;22.87;43.52;101393.88;5033364;28;20045;-63
2023/06/12 01:58:00;;;;;;;11.90;5.32;;;;;;;22.84;43.63;101393.75;5032211;28;20076;-64
2023/06/12 02:00:53;;;;;;;11.52;5.45;;;;;;;22.80;43.65;101407.50;5032216;28;20054;-67
2023/06/12 02:03:23;;;;;;;8.60;5.80;;;;;;;22.79;43.78;101399.50;5031639;28;20045;-62
2023/06/12 02:05:51;;;;;;;8.23;4.85;;;;;;;22.75;43.81;101391.00;5031502;28;20368;-63
2023/06/12 02:08:19;;;;;;;12.82;5.40;;;;;;;22.75;43.98;101396.56;5033246;28;20081;-63
2023/06/12 02:10:46;;;;;;;10.70;5.90;;;;;;;22.70;44.26;101399.56;5030719;28;20125;-65
2023/06/12 02:13:14;;;;;;;9.25;5.85;;;;;;;22.65;44.26;101403.34;5013476;28;20092;-65
2023/06/12 02:15:42;;;;;;;10.95;5.68;;;;;;;22.59;44.45;101395.56;5029045;28;20100;-63
2023/06/12 02:18:10;;;;;;;9.68;5.80;;;;;;;22.48;44.72;101393.13;5052578;28;20056;-64
2023/06/12 02:20:38;;;;;;;10.05;5.85;;;;;;;22.40;45.07;101391.25;5027994;28;20052;-62
2023/06/12 02:23:06;;;;;;;14.15;5.82;;;;;;;22.39;45.14;101389.59;5027728;28;20073;-65
2023/06/12 02:25:33;;;;;;;13.95;6.05;;;;;;;22.41;44.99;101387.28;5035448;28;20049;-64
2023/06/12 02:28:01;;;;;;;10.88;5.60;;;;;;;22.42;45.10;101391.72;5048975;28;20042;-62
2023/06/12 02:30:29;;;;;;;10.63;5.97;;;;;;;22.42;45.17;101388.94;5033743;28;20133;-63
2023/06/12 02:32:57;;;;;;;8.77;5.20;;;;;;;22.38;45.33;101384.38;5033532;28;20103;-63
2023/06/12 02:35:25;;;;;;;9.25;5.68;;;;;;;22.39;45.27;101389.59;5036398;28;20053;-63
2023/06/12 02:37:52;;;;;;;12.52;6.32;;;;;;;22.43;45.23;101390.56;5036020;28;20100;-64
2023/06/12 02:40:20;;;;;;;11.48;5.95;;;;;;;22.40;45.25;101390.44;4996498;28;20056;-66
2023/06/12 02:42:48;;;;;;;14.05;6.32;;;;;;;22.31;45.54;101388.50;5003573;28;20053;-66
2023/06/12 02:45:16;;;;;;;9.70;6.40;;;;;;;22.18;45.98;101388.72;5018662;28;20084;-64
2023/06/12 02:47:44;;;;;;;12.85;6.00;;;;;;;22.15;46.02;101392.13;5024621;28;20487;-63
2023/06/12 02:50:11;;;;;;;12.63;5.97;;;;;;;22.09;46.24;101392.31;5036892;28;20073;-62
2023/06/12 02:52:48;;;;;;;13.73;6.63;;;;;;;22.05;46.34;101391.34;5034973;28;20099;-64
2023/06/12 02:55:16;;;;;;;9.20;5.88;;;;;;;22.08;46.52;101390.69;5039810;28;20081;-63
2023/06/12 02:57:44;;;;;;;14.60;6.22;;;;;;;22.09;46.24;101380.41;5051896;28;20057;-61
2023/06/12 03:00:15;;;;;;;14.02;6.15;;;;;;;22.06;46.43;101381.88;5047167;28;20064;-62
2023/06/12 03:02:47;;;;;;;8.57;5.85;;;;;;;22.02;46.47;101397.56;5018479;28;20054;-63
2023/06/12 03:05:16;;;;;;;8.82;6.05;;;;;;;22.00;46.55;101390.72;5034513;28;20038;-64
2023/06/12 03:07:44;;;;;;;9.60;5.50;;;;;;;21.99;46.62;101386.34;5034902;28;20478;-65
2023/06/12 03:10:16;;;;;;;9.52;5.97;;;;;;;21.98;46.65;101393.00;5038865;28;20053;-63
2023/06/12 03:12:44;;;;;;;11.10;5.88;;;;;;;22.01;46.71;101384.03;5034584;28;20048;-63
2023/06/12 03:15:14;;;;;;;11.15;5.70;;;;;;;22.01;46.50;101387.63;5017774;28;20041;-64
2023/06/12 03:17:42;;;;;;;12.57;5.75;;;;;;;21.95;46.53;101386.16;5027176;28;20041;-65
2023/06/12 03:20:11;;;;;;;11.15;6.28;;;;;;;21.90;46.70;101383.56;5034737;28;20515;-62
2023/06/12 03:22:40;;;;;;;9.50;5.82;;;;;;;21.85;46.89;101386.53;5032822;28;20045;-64
2023/06/12 03:25:10;;;;;;;12.65;5.72;;;;;;;21.83;46.88;101383.25;5017551;28;20437;-64
2023/06/12 03:27:38;;;;;;;9.95;5.75;;;;;;;21.83;47.00;101386.03;5034044;28;20592;-63
2023/06/12 03:30:06;;;;;;;9.68;5.90;;;;;;;21.85;46.77;101387.34;5037170;28;20051;-65
2023/06/12 03:32:34;;;;;;;9.63;5.60;;;;;;;21.84;46.92;101390.44;5034003;28;20589;-64
2023/06/12 03:35:04;;;;;;;9.55;6.10;;;;;;;21.75;46.91;101389.66;5029690;28;20050;-64
2023/06/12 03:37:34;;;;;;;11.15;6.35;;;;;;;21.74;47.05;101386.06;5014657;28;20060;-64
2023/06/12 03:40:06;;;;;;;11.32;6.63;;;;;;;21.78;47.05;101384.25;5015445;28;20125;-63
2023/06/12 03:42:37;;;;;;;11.55;6.75;;;;;;;21.79;46.87;101390.63;5028321;28;20116;-63
2023/06/12 03:45:06;;;;;;;13.30;6.70;;;;;;;21.75;46.92;101395.22;5050447;28;20079;-63
2023/06/12 03:47:34;;;;;;;12.10;6.00;;;;;;;21.67;47.20;101392.13;5048980;28;20048;-65
2023/06/12 03:50:07;;;;;;;12.30;6.55;;;;;;;21.61;47.37;101398.97;5034455;28;20152;-65
2023/06/12 03:52:35;;;;;;;12.15;6.60;;;;;;;21.58;47.34;101402.41;5034390;28;20045;-65
2023/06/12 03:55:03;;;;;;;11.05;6.07;;;;;;;21.60;47.48;101400.13;5032713;28;20049;-64
2023/06/12 03:57:30;;;;;;;9.63;5.72;;;;;;;21.65;47.29;101405.50;5067222;28;20068;-64
2023/06/12 03:59:58;;;;;;;10.90;6.43;;;;;;;21.69;46.80;101405.66;5032852;28;20057;-64
2023/06/12 04:02:26;;;;;;;10.25;6.22;;;;;;;21.68;47.04;101401.25;5045844;28;20041;-63
2023/06/12 04:04:54;;;;;;;10.50;6.80;;;;;;;21.61;47.14;101407.28;4998097;28;20085;-65
2023/06/12 04:07:22;;;;;;;13.20;6.32;;;;;;;21.52;47.18;101403.72;5008579;28;20058;-66
2023/06/12 04:09:50;;;;;;;10.93;6.50;;;;;;;21.51;47.35;101413.19;5026582;28;20049;-64
2023/06/12 04:12:18;;;;;;;10.07;6.32;;;;;;;21.49;47.34;101415.47;5016967;28;20129;-64
2023/06/12 04:14:45;;;;;;;10.68;5.75;;;;;;;21.46;47.59;101413.38;5051039;28;20046;-62
2023/06/12 04:17:13;;;;;;;11.63;6.90;;;;;;;21.53;47.34;101416.47;5045650;28;20042;-64
2023/06/12 04:19:41;;;;;;;9.73;6.35;;;;;;;21.57;47.23;101417.41;5047860;28;20072;-63
2023/06/12 04:22:12;;;;;;;10.85;6.60;;;;;;;21.58;47.22;101423.78;5034165;28;20517;-64
2023/06/12 04:24:42;;;;;;;11.10;6.50;;;;;;;21.54;47.12;101423.63;5017917;28;20046;-62
2023/06/12 04:27:13;;;;;;;10.98;6.47;;;;;;;21.51;47.33;101429.03;5033090;28;20048;-63
2023/06/12 04:29:42;;;;;;;12.75;6.88;;;;;;;21.49;47.21;101423.78;5032782;28;20076;-64
2023/06/12 04:32:13;;;;;;;12.35;5.90;;;;;;;21.52;47.39;101430.63;4999989;28;20047;-63
2023/06/12 04:34:43;;;;;;;10.65;5.82;;;;;;;21.50;47.51;101425.41;5065576;28;20489;-63
2023/06/12 04:37:13;;;;;;;10.38;6.30;;;;;;;21.49;47.35;101429.34;5034332;28;20053;-64
2023/06/12 04:39:41;;;;;;;12.40;6.03;;;;;;;21.48;47.61;101427.72;5011861;28;20046;-63
2023/06/12 04:42:10;;;;;;;11.73;6.63;;;;;;;21.52;47.44;101422.31;5016581;28;20037;-64
2023/06/12 04:44:39;;;;;;;9.50;5.97;;;;;;;21.54;47.26;101420.84;5032846;28;20107;-62
2023/06/12 04:47:08;;;;;;;9.93;6.10;;;;;;;21.53;47.22;101427.53;5032842;28;20049;-65
2023/06/12 04:49:45;;;;;;;11.45;5.85;;;;;;;21.52;47.27;101422.31;5032650;28;20061;-65
2023/06/12 04:52:13;;;;;;;11.48;5.40;;;;;;;21.48;47.49;101417.44;5006567;28;20068;-63
2023/06/12 04:54:44;;;;;;;9.57;5.60;;;;;;;21.49;47.07;101418.25;5012796;28;20100;-65
2023/06/12 04:57:12;;;;;;;9.80;5.93;;;;;;;21.53;46.93;101413.69;5041279;28;20046;-63
2023/06/12 04:59:45;;;;;;;13.32;6.07;;;;;;;21.52;46.89;101414.81;5012510;28;20054;-63
2023/06/12 05:02:14;;;;;;;8.98;5.22;;;;;;;21.61;47.82;101415.63;5021374;28;20418;-61
2023/06/12 05:04:41;;;;;;;11.93;5.35;;;;;;;21.66;46.92;101418.22;5030494;28;20053;-63
2023/06/12 05:07:16;;;;;;;10.52;5.47;;;;;;;21.74;46.56;101415.75;5038773;28;20413;-62
2023/06/12 05:09:51;;;;;;;11.13;5.28;;;;;;;21.79;46.25;101418.34;5038416;28;20385;-63
2023/06/12 05:12:19;;;;;;;9.57;4.90;;;;;;;21.82;47.02;101423.25;5031585;28;20049;-63
2023/06/12 05:14:47;;;;;;;8.52;5.85;;;;;;;21.86;46.72;101429.75;5040775;28;20042;-63
2023/06/12 05:17:15;;;;;;;10.82;5.63;;;;;;;21.84;46.06;101426.50;5015336;28;20468;-64
2023/06/12 05:19:43;;;;;;;17.33;6.07;;;;;;;21.84;45.92;101418.19;5015893;28;20050;-62
2023/06/12 05:22:11;;;;;;;13.15;6.70;;;;;;;21.80;45.60;101428.31;4324813;28;9999943;-64
2023/06/12 05:24:39;;;;;;;9.60;5.68;;;;;;;21.78;46.55;101425.88;5010381;28;20494;-65
2023/06/12 05:27:07;;;;;;;11.52;5.90;;;;;;;21.81;46.11;101424.38;5030131;28;20088;-63
2023/06/12 05:29:35;;;;;;;13.02;7.20;;;;;;;21.81;45.86;101421.63;5029098;28;20045;-62
2023/06/12 05:32:05;;;;;;;9.82;5.50;;;;;;;21.82;46.23;101426.84;5010491;28;20142;-65
2023/06/12 05:34:34;;;;;;;15.63;6.32;;;;;;;21.87;45.95;101420.31;5009182;28;20137;-64
2023/06/12 05:37:03;;;;;;;12.45;7.28;;;;;;;21.91;45.99;101418.47;5011283;28;20073;-62
2023/06/12 05:39:31;;;;;;;14.20;7.30;;;;;;;21.92;45.88;101417.34;5028700;28;20080;-62
2023/06/12 05:42:00;;;;;;;10.15;6.18;;;;;;;21.90;46.16;101414.91;5011264;28;20053;-63
2023/06/12 05:44:28;;;;;;;9.98;6.10;;;;;;;21.93;46.26;101421.75;5030276;28;20458;-61
2023/06/12 05:46:56;;;;;;;16.05;6.45;;;;;;;21.99;45.75;101417.66;5029469;28;20061;-63
2023/06/12 05:49:24;;;;;;;12.68;6.38;;;;;;;22.01;45.15;101412.59;5028248;28;20053;-62
2023/06/12 05:51:51;;;;;;;11.68;6.10;;;;;;;22.06;44.82;101412.41;4997357;28;20362;-63
2023/06/12 05:54:19;;;;;;;10.57;5.88;;;;;;;22.06;44.95;101415.19;5000442;28;20061;-65
2023/06/12 05:56:48;;;;;;;12.40;6.40;;;;;;;22.09;45.22;101420.06;4997884;28;20610;-64
2023/06/12 05:59:16;;;;;;;12.57;5.55;;;;;;;22.14;44.98;101419.06;5014175;28;20088;-63
2023/06/12 06:01:44;;;;;;;10.32;5.82;;;;;;;22.20;45.05;101422.47;5000138;28;20061;-63
2023/06/12 06:04:12;;;;;;;12.90;5.93;;;;;;;22.26;44.83;101419.22;5033918;28;20055;-65
2023/06/12 06:06:40;;;;;;;10.38;5.60;;;;;;;22.29;44.75;101414.97;5049493;28;20059;-65
2023/06/12 06:09:11;;;;;;;10.38;5.60;;;;;;;22.30;44.25;101420.19;5032354;28;20045;-65
2023/06/12 06:11:38;;;;;;;10.20;5.20;;;;;;;22.38;44.75;101421.28;4997484;28;20050;-66
2023/06/12 06:14:06;;;;;;;12.30;5.78;;;;;;;22.44;43.65;101419.97;5047188;28;20045;-64
2023/06/12 06:16:37;;;;;;;14.10;6.38;;;;;;;22.46;43.56;101419.63;5032675;28;20065;-66
2023/06/12 06:19:23;;;;;;;14.10;5.90;;;;;;;22.47;43.26;101416.53;5046411;28;20496;-64
2023/06/12 06:21:51;;;;;;;13.60;5.95;;;;;;;22.48;43.47;101420.91;5028324;28;20065;-66
2023/06/12 06:24:18;;;;;;;14.60;5.13;;;;;;;22.50;43.52;101421.41;5033350;28;20056;-64
2023/06/12 06:26:46;;;;;;;9.27;5.72;;;;;;;22.51;43.37;101431.38;5030569;28;20056;-63
2023/06/12 06:29:14;;;;;;;9.70;4.80;;;;;;;22.57;43.42;101417.28;5031213;28;20515;-66
2023/06/12 06:31:42;;;;;;;11.82;6.13;;;;;;;22.62;43.29;101425.44;5031714;28;20045;-65
2023/06/12 06:34:11;;;;;;;11.32;5.78;;;;;;;22.66;43.46;101420.84;5014470;28;20054;-64
2023/06/12 06:36:39;;;;;;;10.10;5.53;;;;;;;22.69;43.76;101432.06;5028671;28;20049;-65
2023/06/12 06:39:07;;;;;;;14.20;5.60;;;;;;;22.70;42.83;101421.78;5014021;28;20408;-65
2023/06/12 06:41:37;;;;;;;15.73;6.25;;;;;;;22.70;42.96;101424.56;5017964;28;20564;-65
2023/06/12 06:44:06;;;;;;;21.60;8.02;;;;;;;22.71;43.14;101423.41;5035044;28;20516;-65
2023/06/12 06:46:33;;;;;;;15.85;6.00;;;;;;;22.71;43.32;101429.78;5069098;28;20502;-64
2023/06/12 06:49:02;;;;;;;15.75;6.57;;;;;;;22.74;43.29;101431.88;5031906;28;20448;-64
2023/06/12 06:51:31;;;;;;;13.23;5.85;;;;;;;22.78;43.30;101432.03;5001822;28;20442;-64
2023/06/12 06:54:00;;;;;;;14.05;5.68;;;;;;;22.80;43.09;101429.75;5015670;28;20512;-62
2023/06/12 06:56:27;;;;;;;9.43;5.13;;;;;;;22.81;42.87;101436.91;5021630;28;20051;-65
2023/06/12 06:58:55;;;;;;;11.77;5.55;;;;;;;22.82;42.97;101435.75;5051729;28;20476;-65
2023/06/12 07:01:24;;;;;;;10.02;5.00;;;;;;;22.82;43.06;101435.75;5016641;28;20122;-66
2023/06/12 07:03:52;;;;;;;12.75;5.35;;;;;;;22.82;43.08;101424.63;5019242;28;20046;-66
2023/06/12 07:06:21;;;;;;;13.00;5.38;;;;;;;22.87;43.22;101434.75;5000997;28;20498;-65
2023/06/12 07:08:51;;;;;;;11.02;4.95;;;;;;;22.89;43.47;101430.47;5016157;28;20104;-63
2023/06/12 07:11:21;;;;;;;12.48;5.50;;;;;;;22.91;43.44;101428.19;5031913;28;20132;-65
2023/06/12 07:13:48;;;;;;;11.07;5.50;;;;;;;22.94;43.28;101424.72;5034566;28;20069;-65
2023/06/12 07:16:16;;;;;;;12.75;5.30;;;;;;;22.95;43.46;101426.38;5051303;28;20053;-62
2023/06/12 07:18:44;;;;;;;14.25;5.90;;;;;;;23.00;43.99;101419.00;5034451;28;20041;-63
2023/06/12 07:21:14;;;;;;;13.35;6.10;;;;;;;23.04;43.61;101420.78;5033193;28;20064;-63
2023/06/12 07:23:42;;;;;;;10.30;5.63;;;;;;;23.06;43.57;101417.66;5051316;28;20124;-62
2023/06/12 07:26:13;;;;;;;9.05;5.15;;;;;;;23.09;43.46;101414.19;5047807;28;20038;-61
2023/06/12 07:28:59;;;;;;;11.65;4.90;;;;;;;23.11;43.60;101415.47;5014726;28;20391;-62
2023/06/12 07:31:30;;;;;;;11.38;5.32;;;;;;;23.15;43.71;101413.66;5014740;28;20401;-61
2023/06/12 07:33:59;;;;;;;9.88;5.45;;;;;;;23.18;43.74;101415.75;4999026;28;20120;-63
2023/06/12 07:36:31;;;;;;;11.88;5.70;;;;;;;23.23;43.70;101420.28;5031189;28;20132;-65
2023/06/12 07:38:59;;;;;;;11.57;5.47;;;;;;;23.28;43.91;101422.06;5014332;28;20133;-63
2023/06/12 07:41:28;;;;;;;12.43;5.22;;;;;;;23.33;44.43;101417.13;5044429;28;20104;-63
2023/06/12 07:43:56;;;;;;;11.23;5.13;;;;;;;23.41;43.96;101411.81;5014526;28;20045;-63
2023/06/12 07:46:24;;;;;;;10.55;4.97;;;;;;;23.46;43.78;101417.16;5046466;28;20129;-63
2023/06/12 07:48:51;;;;;;;11.20;5.38;;;;;;;23.53;43.94;101421.00;5014511;28;20041;-64
2023/06/12 07:51:20;;;;;;;11.75;6.05;;;;;;;23.59;43.02;101414.09;5014234;28;20053;-62
2023/06/12 07:53:49;;;;;;;9.50;5.28;;;;;;;23.63;42.54;101413.41;5046978;28;20045;-62
2023/06/12 07:56:20;;;;;;;11.07;5.13;;;;;;;23.61;42.52;101411.75;5014656;28;20074;-63
2023/06/12 07:58:50;;;;;;;14.02;6.18;;;;;;;23.61;42.69;101408.16;5029258;28;20045;-63
2023/06/12 08:01:18;;;;;;;10.07;5.20;;;;;;;23.65;42.47;101405.53;5034920;28;20057;-63
2023/06/12 08:03:46;;;;;;;15.57;6.00;;;;;;;23.71;42.75;101416.06;5034865;28;20045;-62
2023/06/12 08:06:15;;;;;;;10.15;5.43;;;;;;;23.81;42.67;101409.28;5014581;28;20058;-62
2023/06/12 08:08:46;;;;;;;8.60;4.90;;;;;;;23.84;42.61;101407.81;5014335;28;20077;-62
2023/06/12 08:11:15;;;;;;;8.30;5.00;;;;;;;23.89;42.76;101408.41;5011399;28;20042;-63
2023/06/12 08:13:47;;;;;;;8.70;5.45;;;;;;;23.98;42.74;101413.84;5025260;28;20041;-63
2023/06/12 08:16:16;;;;;;;10.05;5.50;;;;;;;24.00;42.19;101400.41;5046518;28;20053;-63
2023/06/12 08:18:45;;;;;;;9.40;5.40;;;;;;;24.03;42.05;101402.53;5025852;28;20057;-62
2023/06/12 08:21:15;;;;;;;9.43;5.30;;;;;;;24.07;42.68;101403.44;5057610;28;20053;-62
2023/06/12 08:23:43;;;;;;;10.68;6.10;;;;;;;24.10;41.84;101405.53;5043206;28;20056;-63
2023/06/12 08:26:11;;;;;;;12.73;5.07;;;;;;;24.15;41.91;101402.53;5048879;28;20066;-63
2023/06/12 08:28:39;;;;;;;10.90;5.50;;;;;;;24.20;41.77;101396.72;5023114;28;20041;-62
2023/06/12 08:31:13;;;;;;;8.25;5.38;;;;;;;24.29;41.65;101401.38;5033998;28;20490;-62
2023/06/12 08:33:41;;;;;;;10.90;5.75;;;;;;;24.37;41.35;101392.09;5032899;28;20049;-62
2023/06/12 08:36:08;;;;;;;10.68;5.15;;;;;;;24.43;40.44;101396.25;5039175;28;20045;-63
2023/06/12 08:38:36;;;;;;;11.00;5.07;;;;;;;24.43;40.29;101401.84;5018754;28;20085;-63
2023/06/12 08:41:06;;;;;;;8.48;5.20;;;;;;;24.44;40.53;101404.28;5025636;28;20131;-63
2023/06/12 08:43:35;;;;;;;9.40;5.25;;;;;;;24.50;40.47;101395.72;5033571;28;20056;-63
2023/06/12 08:46:04;;;;;;;12.02;5.10;;;;;;;24.49;40.28;101394.91;5019146;28;20049;-64
2023/06/12 08:48:33;;;;;;;10.48;5.20;;;;;;;24.51;40.94;101395.38;5033878;28;20057;-62
2023/06/12 08:51:02;;;;;;;9.55;5.03;;;;;;;24.57;40.54;101395.94;5034361;28;20049;-62
2023/06/12 08:53:30;;;;;;;8.27;5.05;;;;;;;24.58;40.60;101392.81;5037423;28;20045;-63
2023/06/12 08:55:58;;;;;;;9.55;5.15;;;;;;;24.62;40.29;101393.72;5034822;28;20486;-63
2023/06/12 08:58:26;;;;;;;10.18;5.80;;;;;;;24.76;39.94;101392.56;5065865;28;20099;-62
2023/06/12 09:00:54;;;;;;;12.02;5.45;;;;;;;24.84;40.43;101386.03;5032050;28;20183;-62
2023/06/12 09:03:22;;;;;;;9.15;5.30;;;;;;;24.90;40.24;101387.41;5032870;28;20436;-63
2023/06/12 09:05:52;;;;;;;8.05;5.22;;;;;;;25.02;40.76;101383.78;5034131;28;20087;-62
2023/06/12 09:08:21;;;;;;;11.00;5.57;;;;;;;25.14;39.69;101374.56;5033476;28;20084;-64
2023/06/12 09:10:49;;;;;;;10.25;6.05;;;;;;;25.20;39.01;101381.53;5019568;28;20080;-61
2023/06/12 09:13:16;;;;;;;11.65;5.38;;;;;;;25.21;38.71;101381.19;5013880;28;20056;-60
2023/06/12 09:15:52;;;;;;;11.75;5.25;;;;;;;25.24;38.55;101382.47;5013794;28;20069;-63
2023/06/12 09:18:20;;;;;;;11.30;5.05;;;;;;;25.27;37.86;101379.75;5013884;28;20494;-64
2023/06/12 09:20:49;;;;;;;9.43;5.10;;;;;;;25.27;39.12;101378.97;5015099;28;20046;-61
2023/06/12 09:23:17;;;;;;;14.98;5.40;;;;;;;25.32;38.01;101373.13;5013778;28;20479;-61
2023/06/12 09:25:45;;;;;;;9.00;5.00;;;;;;;25.35;38.22;101375.22;5013380;28;20518;-64
2023/06/12 09:28:36;;;;;;;13.18;5.53;;;;;;;25.39;38.36;101375.31;5018141;28;20042;-63
2023/06/12 09:31:05;;;;;;;13.00;5.20;;;;;;;25.45;37.51;101373.91;5018052;28;20243;-62
2023/06/12 09:33:35;;;;;;;14.52;5.20;;;;;;;25.44;37.44;101372.25;5000635;28;20550;-63
2023/06/12 09:36:03;;;;;;;6.93;4.70;;;;;;;25.44;37.43;101364.69;5035659;28;20054;-63
2023/06/12 09:38:32;;;;;;;9.98;5.13;;;;;;;25.47;37.70;101361.22;5037815;28;20099;-64
2023/06/12 09:41:05;;;;;;;9.82;5.30;;;;;;;25.49;37.19;101358.84;5031753;28;20555;-62
2023/06/12 09:43:33;;;;;;;11.05;5.20;;;;;;;25.60;38.04;101363.94;5036663;28;20498;-62
2023/06/12 09:46:06;;;;;;;12.55;5.15;;;;;;;25.70;38.14;101367.00;5024454;28;20050;-62
2023/06/12 09:48:38;;;;;;;12.45;5.22;;;;;;;25.74;37.81;101364.31;5032892;28;20050;-63
2023/06/12 09:51:22;;;;;;;9.95;5.15;;;;;;;25.76;37.71;101359.19;5030601;28;20046;-62
2023/06/12 09:53:51;;;;;;;11.18;5.10;;;;;;;25.83;37.05;101364.13;5017122;28;20609;-62
2023/06/12 09:56:19;;;;;;;10.77;5.28;;;;;;;25.86;37.37;101369.84;5032823;28;20482;-65
2023/06/12 09:58:48;;;;;;;13.48;5.72;;;;;;;25.85;36.64;101370.97;5017416;28;20085;-62
2023/06/12 10:01:19;;;;;;;9.45;5.03;;;;;;;25.85;35.65;101370.16;5015946;28;20069;-62
2023/06/12 10:03:50;;;;;;;11.55;5.40;;;;;;;25.88;35.23;101375.88;5016696;28;20100;-62
2023/06/12 10:06:19;;;;;;;8.27;5.22;;;;;;;25.89;35.98;101365.53;5016990;28;20072;-64
2023/06/12 10:08:50;;;;;;;8.38;4.97;;;;;;;25.88;35.56;101370.31;4983696;28;20081;-63
2023/06/12 10:11:18;;;;;;;9.02;5.00;;;;;;;25.89;36.29;101371.09;5031395;28;20056;-63
2023/06/12 10:13:46;;;;;;;11.60;5.18;;;;;;;25.90;35.91;101379.13;5033942;28;20394;-62
2023/06/12 10:16:15;;;;;;;7.93;5.07;;;;;;;25.94;36.20;101376.41;5063197;28;20048;-61
2023/06/12 10:18:43;;;;;;;8.63;5.20;;;;;;;25.97;36.23;101366.50;5018708;28;20049;-65
2023/06/12 10:21:11;;;;;;;10.07;5.05;;;;;;;25.97;36.32;101358.94;5015985;28;20081;-63
2023/06/12 10:23:41;;;;;;;9.85;5.20;;;;;;;26.01;36.71;101357.06;5018292;28;20125;-63
2023/06/12 10:26:09;;;;;;;10.63;5.50;;;;;;;26.08;36.74;101357.22;5030576;28;20049;-64
2023/06/12 10:28:36;;;;;;;11.02;5.45;;;;;;;26.19;36.61;101346.31;5034642;28;20058;-62
2023/06/12 10:31:12;;;;;;;9.77;5.47;;;;;;;26.27;36.35;101348.13;5034319;28;20133;-65
2023/06/12 10:33:57;;;;;;;12.60;5.30;;;;;;;26.26;35.45;101346.47;5030626;28;20037;-61
2023/06/12 10:36:25;;;;;;;15.80;5.38;;;;;;;26.26;35.40;101357.66;5023862;28;20069;-63
2023/06/12 10:39:04;;;;;;;12.23;5.60;;;;;;;26.27;35.04;101348.13;4999876;28;20049;-64
2023/06/12 10:41:32;;;;;;;15.07;6.40;;;;;;;26.26;34.80;101346.47;5046907;28;20462;-63
2023/06/12 10:44:01;;;;;;;14.88;5.63;;;;;;;26.31;34.86;101345.38;5052197;28;20041;-63
2023/06/12 10:46:43;;;;;;;13.82;6.47;;;;;;;26.37;35.40;101340.34;5018964;28;20045;-62
2023/06/12 10:49:13;;;;;;;10.32;5.80;;;;;;;26.38;35.78;101342.75;5033410;28;20118;-62
2023/06/12 10:51:48;;;;;;;9.77;5.57;;;;;;;26.46;36.06;101335.38;5036114;28;20042;-63
2023/06/12 10:54:18;;;;;;;9.87;5.87;;;;;;;26.47;36.13;101329.41;5018504;28;20113;-62
2023/06/12 10:56:59;;;;;;;14.00;6.05;;;;;;;26.55;35.67;101331.25;5014160;28;20776;-62
2023/06/12 10:59:35;;;;;;;20.10;7.97;;;;;;;26.63;35.21;101337.78;5016126;28;20064;-64
2023/06/12 11:02:05;;;;;;;13.20;6.32;;;;;;;26.71;34.92;101331.16;5019591;28;20042;-63
2023/06/12 11:04:38;;;;;;;12.60;5.70;;;;;;;26.77;35.04;101340.91;5035251;28;20472;-63
2023/06/12 11:07:06;;;;;;;13.90;5.70;;;;;;;26.73;34.95;101336.41;5035174;28;20509;-65
2023/06/12 11:09:40;;;;;;;9.30;5.68;;;;;;;26.67;35.83;101333.06;4339287;28;10000676;-64
2023/06/12 11:12:08;;;;;;;10.60;6.10;;;;;;;26.74;35.75;101329.63;5031046;28;20508;-64
2023/06/12 11:14:36;;;;;;;8.20;5.18;;;;;;;26.75;35.17;101334.84;5017563;28;20078;-64
2023/06/12 11:17:04;;;;;;;8.68;5.30;;;;;;;26.80;34.83;101324.56;5027978;28;20125;-65
2023/06/12 11:19:32;;;;;;;9.43;5.28;;;;;;;26.82;34.98;101327.78;5012791;28;20562;-65
2023/06/12 11:22:03;;;;;;;10.65;5.50;;;;;;;26.85;35.21;101335.47;5011809;28;20506;-63
2023/06/12 11:24:31;;;;;;;11.63;5.40;;;;;;;26.92;34.55;101330.81;5011015;28;20084;-64
2023/06/12 11:27:00;;;;;;;12.65;5.45;;;;;;;26.92;35.09;101335.63;5028692;28;20045;-65
2023/06/12 11:29:35;;;;;;;10.30;5.78;;;;;;;26.96;34.45;101333.69;5012540;28;20054;-64